Time;durP1;ratioP1;P1;durP2;ratioP2;P2;SDS_P1;SDS_P2;PMS_P1;PMS_P2;Temp;Humidity;BMP_temperature;BMP_pressure;BME280_temperature;BME280_humidity;BME280_pressure;Samples;Min_cycle;Max_cycle;Signal;HPM_P1;HPM_P2
2021/01/05 00:01:16;;;;;;;21.20;9.87;;;0.70;99.90;;;;;;5070377;28;20498;-53
2021/01/05 00:03:43;;;;;;;25.47;10.43;;;0.60;99.90;;;;;;5070743;28;20625;-53
2021/01/05 00:06:09;;;;;;;24.30;10.17;;;0.60;99.90;;;;;;5070455;28;20502;-53
2021/01/05 00:08:36;;;;;;;21.00;9.17;;;0.40;99.90;;;;;;5069654;28;20831;-52
2021/01/05 00:11:02;;;;;;;21.87;9.93;;;0.40;99.90;;;;;;5063275;28;20470;-52
2021/01/05 00:13:29;;;;;;;21.30;9.63;;;0.60;99.90;;;;;;5050739;28;20458;-53
2021/01/05 00:15:55;;;;;;;24.37;9.50;;;0.60;99.90;;;;;;5050347;28;20451;-52
2021/01/05 00:18:23;;;;;;;20.97;8.87;;;0.50;99.90;;;;;;5056147;28;20861;-54
2021/01/05 00:20:49;;;;;;;20.87;9.23;;;0.50;99.90;;;;;;5070349;28;20488;-53
2021/01/05 00:23:16;;;;;;;23.13;9.30;;;0.50;99.90;;;;;;5070671;28;20955;-53
2021/01/05 00:25:43;;;;;;;21.53;9.47;;;0.60;99.90;;;;;;5069803;28;20462;-53
2021/01/05 00:28:11;;;;;;;20.93;9.50;;;0.50;99.90;;;;;;5069805;28;20454;-53
2021/01/05 00:30:38;;;;;;;23.60;9.60;;;0.60;99.90;;;;;;5069476;28;20476;-53
2021/01/05 00:33:06;;;;;;;21.67;9.30;;;0.60;99.90;;;;;;5069512;28;20947;-52
2021/01/05 00:35:36;;;;;;;22.13;9.20;;;0.60;99.90;;;;;;5069812;28;20519;-52
2021/01/05 00:38:04;;;;;;;21.20;9.67;;;0.50;99.90;;;;;;5069616;28;20453;-52
2021/01/05 00:40:31;;;;;;;23.40;8.97;;;0.60;99.90;;;;;;5069541;28;20478;-52
2021/01/05 00:42:58;;;;;;;19.50;8.67;;;0.50;99.90;;;;;;5069555;28;20513;-52
2021/01/05 00:45:29;;;;;;;22.20;9.20;;;0.50;99.90;;;;;;5069739;28;20443;-53
2021/01/05 00:47:57;;;;;;;23.17;9.07;;;0.40;99.90;;;;;;5069358;28;20560;-51
2021/01/05 00:50:24;;;;;;;22.50;10.00;;;0.50;99.90;;;;;;5069185;28;20826;-52
2021/01/05 00:59:35;;;;;;;23.30;9.63;;;0.40;99.90;;;;;;5073216;28;20488;-53
2021/01/05 01:02:03;;;;;;;22.73;11.20;;;0.50;99.90;;;;;;5073229;28;20489;-52
2021/01/05 01:04:30;;;;;;;17.63;9.07;;;0.70;99.90;;;;;;5073593;28;20450;-52
2021/01/05 01:06:57;;;;;;;18.13;8.73;;;0.60;99.90;;;;;;5073332;28;20454;-52
2021/01/05 01:09:24;;;;;;;19.17;8.83;;;0.60;99.90;;;;;;5072406;28;20476;-52
2021/01/05 01:11:59;;;;;;;22.80;10.57;;;0.60;99.90;;;;;;5073475;28;20465;-52
2021/01/05 01:14:25;;;;;;;19.07;8.60;;;0.60;99.90;;;;;;5072918;28;20461;-52
2021/01/05 01:16:53;;;;;;;23.27;10.60;;;0.60;99.90;;;;;;5073240;28;20449;-52
2021/01/05 01:19:19;;;;;;;23.80;9.80;;;0.50;99.90;;;;;;5072078;28;20807;-52
2021/01/05 01:21:47;;;;;;;26.97;9.90;;;0.50;99.90;;;;;;5072704;28;20485;-52
2021/01/05 01:24:14;;;;;;;21.40;9.37;;;0.50;99.90;;;;;;5073198;28;20453;-52
2021/01/05 01:26:40;;;;;;;21.77;8.87;;;0.50;99.90;;;;;;5073003;28;20450;-52
2021/01/05 01:29:07;;;;;;;21.30;10.07;;;0.50;99.90;;;;;;5072618;28;20456;-52
2021/01/05 01:31:33;;;;;;;21.37;10.03;;;0.50;99.90;;;;;;5072796;28;20461;-52
2021/01/05 01:34:01;;;;;;;20.40;9.43;;;0.30;99.90;;;;;;5072726;28;20458;-52
2021/01/05 01:36:28;;;;;;;20.43;9.20;;;0.20;99.90;;;;;;5072628;28;20449;-52
2021/01/05 01:38:54;;;;;;;21.83;9.17;;;0.10;99.90;;;;;;5072436;28;20461;-52
2021/01/05 01:41:21;;;;;;;22.37;9.73;;;0.00;99.90;;;;;;5072531;28;20481;-53
2021/01/05 01:43:47;;;;;;;24.00;10.07;;;-0.10;99.90;;;;;;5072726;28;20442;-52
2021/01/05 01:46:14;;;;;;;21.67;10.00;;;-0.30;99.90;;;;;;5072700;28;20454;-52
2021/01/05 01:48:42;;;;;;;22.40;9.93;;;-0.30;99.90;;;;;;5063707;28;20449;-53
2021/01/05 01:51:10;;;;;;;23.03;9.83;;;-0.30;99.90;;;;;;5072597;28;20469;-52
2021/01/05 01:54:09;;;;;;;26.77;10.67;;;-0.20;99.90;;;;;;5072649;28;20852;-51
2021/01/05 01:57:02;;;;;;;25.53;10.17;;;-0.30;99.90;;;;;;5072215;28;20946;-52
2021/01/05 01:59:46;;;;;;;24.70;10.07;;;-0.20;99.90;;;;;;5071698;28;20821;-52
2021/01/05 02:02:17;;;;;;;21.23;9.60;;;-0.30;99.90;;;;;;5072000;28;20488;-51
2021/01/05 02:04:57;;;;;;;24.90;9.63;;;-0.20;99.90;;;;;;5072003;28;20828;-52
2021/01/05 02:07:54;;;;;;;25.60;10.07;;;-0.30;99.90;;;;;;5070817;28;20958;-52
2021/01/05 02:10:57;;;;;;;19.80;8.80;;;-0.10;99.90;;;;;;5067940;28;21011;-53
2021/01/05 02:13:37;;;;;;;19.53;8.77;;;0.00;99.90;;;;;;5071635;28;20452;-52
2021/01/05 02:16:17;;;;;;;23.53;10.23;;;0.00;99.90;;;;;;5065687;28;20449;-52
2021/01/05 02:18:46;;;;;;;23.13;10.10;;;0.10;99.90;;;;;;5071290;28;20467;-53
2021/01/05 02:21:23;;;;;;;20.80;9.30;;;0.10;99.90;;;;;;5071743;28;20476;-52
2021/01/05 02:24:20;;;;;;;18.97;9.00;;;0.20;99.90;;;;;;5071689;28;20456;-52
2021/01/05 02:26:54;;;;;;;22.40;9.00;;;0.40;99.90;;;;;;5054910;28;20495;-51
2021/01/05 02:29:25;;;;;;;21.87;9.80;;;0.30;99.90;;;;;;5071843;28;20456;-52
2021/01/05 02:32:06;;;;;;;23.70;9.53;;;0.40;99.90;;;;;;5071600;28;20518;-52
2021/01/05 02:34:51;;;;;;;21.30;10.30;;;0.50;99.90;;;;;;5071763;28;20446;-52
2021/01/05 02:37:38;;;;;;;20.13;9.73;;;0.60;99.90;;;;;;5071072;28;20455;-52
2021/01/05 02:40:36;;;;;;;22.97;9.40;;;0.70;99.90;;;;;;5063750;28;20538;-52
2021/01/05 02:43:29;;;;;;;21.03;9.40;;;0.60;99.90;;;;;;5071414;28;20532;-52
2021/01/05 02:46:15;;;;;;;23.37;10.50;;;0.50;99.90;;;;;;5071532;28;20464;-52
2021/01/05 02:48:54;;;;;;;24.80;10.13;;;0.40;99.90;;;;;;5067578;28;20458;-52
2021/01/05 02:52:12;;;;;;;25.10;10.40;;;0.50;99.90;;;;;;5071203;28;20530;-53
2021/01/05 02:55:03;;;;;;;21.20;9.20;;;0.60;99.90;;;;;;5071066;28;20915;-52
2021/01/05 02:57:53;;;;;;;22.27;10.13;;;0.50;99.90;;;;;;5065706;28;20446;-52
2021/01/05 03:01:01;;;;;;;25.60;10.00;;;0.30;99.90;;;;;;5070808;28;20519;-51
2021/01/05 03:03:43;;;;;;;24.10;10.00;;;0.30;99.90;;;;;;5070825;28;20983;-52
2021/01/05 03:06:33;;;;;;;22.80;10.47;;;0.20;99.90;;;;;;5070997;28;20461;-53
2021/01/05 03:09:37;;;;;;;26.50;9.87;;;0.20;99.90;;;;;;5071002;28;20442;-52
2021/01/05 03:12:37;;;;;;;22.23;9.70;;;0.10;99.90;;;;;;5067971;28;20469;-52
2021/01/05 03:15:15;;;;;;;23.17;10.30;;;0.30;99.90;;;;;;5034348;28;20445;-52
2021/01/05 03:17:49;;;;;;;21.50;9.07;;;0.20;99.90;;;;;;5070732;28;20453;-52
2021/01/05 03:20:23;;;;;;;23.80;10.20;;;0.30;99.90;;;;;;5070445;28;20834;-51
2021/01/05 03:22:53;;;;;;;22.03;9.10;;;0.40;99.90;;;;;;5070958;28;20481;-51
2021/01/05 03:25:22;;;;;;;20.80;8.60;;;0.40;99.90;;;;;;5067697;28;20449;-52
2021/01/05 03:34:33;;;;;;;26.27;10.03;;;0.10;99.90;;;;;;5070166;28;20971;-51
2021/01/05 03:37:00;;;;;;;23.93;9.43;;;-0.10;99.90;;;;;;5070916;28;20507;-51
2021/01/05 03:39:27;;;;;;;22.43;9.87;;;0.00;99.90;;;;;;5070247;28;20457;-52
2021/01/05 03:41:53;;;;;;;26.00;10.23;;;0.00;99.90;;;;;;5069884;28;20484;-52
2021/01/05 03:44:20;;;;;;;18.70;9.00;;;0.00;99.90;;;;;;5070268;28;20449;-52
2021/01/05 03:46:47;;;;;;;22.43;9.83;;;0.20;99.90;;;;;;5070610;28;20447;-52
2021/01/05 03:49:13;;;;;;;20.40;9.73;;;0.20;99.90;;;;;;5070053;28;20448;-52
2021/01/05 03:51:40;;;;;;;23.83;10.77;;;0.30;99.90;;;;;;5070392;28;20464;-52
2021/01/05 03:54:09;;;;;;;27.43;12.77;;;0.30;99.90;;;;;;5070313;28;20513;-52
2021/01/05 03:56:35;;;;;;;22.03;9.60;;;0.10;99.90;;;;;;5070127;28;20453;-52
2021/01/05 03:59:04;;;;;;;21.27;10.87;;;-0.10;99.90;;;;;;5070052;28;20445;-53
2021/01/05 04:01:30;;;;;;;24.37;11.10;;;-0.10;99.90;;;;;;5070189;28;21076;-52
2021/01/05 04:03:57;;;;;;;23.73;10.30;;;0.00;99.90;;;;;;5070108;28;20450;-52
2021/01/05 04:06:27;;;;;;;24.70;11.13;;;-0.20;99.90;;;;;;5070360;28;21014;-52
2021/01/05 04:08:54;;;;;;;22.77;9.83;;;-0.30;99.90;;;;;;5069543;28;20967;-52
2021/01/05 04:11:21;;;;;;;20.97;9.87;;;-0.40;99.90;;;;;;5070401;28;20480;-52
2021/01/05 04:13:47;;;;;;;24.33;9.83;;;-0.40;99.90;;;;;;5069700;28;20455;-52
2021/01/05 04:16:14;;;;;;;24.73;9.93;;;-0.30;99.90;;;;;;5070278;28;20454;-52
2021/01/05 04:18:41;;;;;;;20.00;9.90;;;-0.20;99.90;;;;;;5070118;28;20450;-53
2021/01/05 04:21:07;;;;;;;25.37;11.70;;;-0.20;99.90;;;;;;5062094;28;20476;-52
2021/01/05 04:23:33;;;;;;;24.27;10.57;;;-0.10;99.90;;;;;;5070128;28;20860;-52
2021/01/05 04:26:01;;;;;;;24.33;9.80;;;-0.20;99.90;;;;;;5069671;28;20972;-53
2021/01/05 04:28:27;;;;;;;21.90;10.50;;;-0.20;99.90;;;;;;5069415;28;20493;-52
2021/01/05 04:30:54;;;;;;;24.87;10.40;;;-0.10;99.90;;;;;;5069047;28;20466;-52
2021/01/05 04:33:20;;;;;;;28.13;9.93;;;0.00;99.90;;;;;;5069637;28;21035;-52
2021/01/05 04:35:47;;;;;;;26.07;10.30;;;0.20;99.90;;;;;;5069856;28;20450;-51
2021/01/05 04:38:13;;;;;;;25.77;10.00;;;0.20;99.90;;;;;;5062073;28;20467;-52
2021/01/05 04:40:42;;;;;;;22.60;10.40;;;0.20;99.90;;;;;;5069884;28;20472;-52
2021/01/05 04:43:39;;;;;;;23.80;10.37;;;0.20;99.90;;;;;;5069842;28;20524;-52
2021/01/05 04:46:23;;;;;;;23.97;9.67;;;0.30;99.90;;;;;;5069680;28;20830;-52
2021/01/05 04:48:55;;;;;;;26.20;10.40;;;0.40;99.90;;;;;;5069965;28;20461;-52
2021/01/05 04:51:32;;;;;;;26.80;11.03;;;0.30;99.90;;;;;;5070016;28;20527;-52
2021/01/05 04:54:05;;;;;;;22.13;9.83;;;0.30;99.90;;;;;;5069688;28;20517;-52
2021/01/05 04:56:47;;;;;;;21.97;10.10;;;0.30;99.90;;;;;;5069933;28;20942;-52
2021/01/05 04:59:17;;;;;;;24.50;9.73;;;0.40;99.90;;;;;;5069156;28;20457;-52
2021/01/05 05:01:44;;;;;;;23.20;9.83;;;0.50;99.90;;;;;;5068957;28;20493;-52
2021/01/05 05:04:19;;;;;;;20.10;9.63;;;0.50;99.90;;;;;;5069696;28;20450;-51
2021/01/05 05:06:51;;;;;;;22.10;9.63;;;0.40;99.90;;;;;;5069384;28;20449;-52
2021/01/05 05:09:34;;;;;;;21.03;10.97;;;0.30;99.90;;;;;;5069248;28;20460;-52
2021/01/05 05:12:15;;;;;;;22.17;9.73;;;0.30;99.90;;;;;;5069307;28;20462;-52
2021/01/05 05:14:49;;;;;;;22.97;9.90;;;0.30;99.90;;;;;;5086717;22;20500;-55
2021/01/05 05:17:27;;;;;;;21.70;8.90;;;0.50;99.90;;;;;;5068749;28;20885;-55
2021/01/05 05:20:09;;;;;;;24.37;10.53;;;0.60;99.90;;;;;;5069445;28;20450;-55
2021/01/05 05:22:51;;;;;;;22.87;10.50;;;0.50;99.90;;;;;;5066977;28;20484;-55
2021/01/05 05:25:25;;;;;;;21.87;9.60;;;0.50;99.90;;;;;;5061304;28;20481;-55
2021/01/05 05:27:54;;;;;;;18.00;9.13;;;0.60;99.90;;;;;;5049713;28;20454;-55
2021/01/05 05:30:33;;;;;;;23.70;10.10;;;0.70;99.90;;;;;;5049242;28;20455;-55
2021/01/05 05:33:02;;;;;;;24.93;10.50;;;0.50;99.90;;;;;;5049535;28;20537;-55
2021/01/05 05:36:09;;;;;;;25.37;10.70;;;0.40;99.90;;;;;;5044851;28;20491;-55
2021/01/05 05:38:55;;;;;;;21.90;8.80;;;0.60;99.90;;;;;;5015231;28;20455;-55
2021/01/05 05:41:31;;;;;;;21.50;10.00;;;0.80;99.90;;;;;;5046728;28;20467;-55
2021/01/05 05:44:24;;;;;;;23.40;9.63;;;0.90;99.90;;;;;;5053261;28;20490;-55
2021/01/05 05:46:59;;;;;;;25.87;10.27;;;0.90;99.90;;;;;;5045452;28;20845;-55
2021/01/05 05:49:45;;;;;;;24.20;9.40;;;0.90;99.90;;;;;;5052133;28;21029;-55
2021/01/05 05:52:29;;;;;;;27.40;11.20;;;0.70;99.90;;;;;;5053154;28;20459;-55
2021/01/05 05:54:58;;;;;;;28.80;12.70;;;0.70;99.90;;;;;;5053083;28;20869;-55
2021/01/05 05:57:35;;;;;;;28.30;12.57;;;0.50;99.90;;;;;;5052991;28;20444;-55
2021/01/05 06:00:16;;;;;;;26.60;11.50;;;0.40;99.90;;;;;;5052677;28;20454;-55
2021/01/05 06:02:43;;;;;;;24.40;10.03;;;0.50;99.90;;;;;;5052413;28;20999;-55
2021/01/05 06:05:21;;;;;;;23.77;9.93;;;0.60;99.90;;;;;;5052934;28;20475;-55
2021/01/05 06:07:47;;;;;;;28.03;11.27;;;0.60;99.90;;;;;;5052468;28;20823;-55
2021/01/05 06:10:14;;;;;;;19.50;9.63;;;0.70;99.90;;;;;;5052446;28;20455;-55
2021/01/05 06:12:41;;;;;;;26.77;11.00;;;0.80;99.90;;;;;;5052507;28;20466;-54
2021/01/05 06:15:08;;;;;;;28.53;11.80;;;0.70;99.90;;;;;;5052384;28;20485;-54
2021/01/05 06:17:35;;;;;;;25.77;12.00;;;0.70;99.90;;;;;;5052180;28;20454;-54
2021/01/05 06:20:04;;;;;;;24.67;11.03;;;0.70;99.90;;;;;;5052124;28;20451;-54
2021/01/05 06:22:30;;;;;;;24.77;10.13;;;0.60;99.90;;;;;;5052278;28;20510;-55
2021/01/05 06:24:58;;;;;;;23.40;9.83;;;0.80;99.90;;;;;;5044261;28;20540;-55
2021/01/05 06:27:24;;;;;;;25.53;11.10;;;0.80;99.90;;;;;;5052232;28;20455;-55
2021/01/05 06:29:51;;;;;;;29.03;10.37;;;0.90;99.90;;;;;;5047787;28;20463;-54
2021/01/05 06:32:17;;;;;;;24.10;10.67;;;0.70;99.90;;;;;;5052318;28;20443;-55
2021/01/05 06:34:44;;;;;;;22.47;10.80;;;0.70;99.90;;;;;;5052020;28;20992;-55
2021/01/05 06:37:12;;;;;;;23.60;10.17;;;0.60;99.90;;;;;;5049597;28;20524;-55
2021/01/05 06:39:39;;;;;;;25.50;10.40;;;0.50;99.90;;;;;;5051665;28;20808;-56
2021/01/05 06:42:06;;;;;;;23.37;10.20;;;0.60;99.90;;;;;;5051414;28;20536;-55
2021/01/05 06:44:32;;;;;;;20.73;9.60;;;0.80;99.90;;;;;;5051222;28;20455;-55
2021/01/05 06:46:59;;;;;;;27.20;11.00;;;0.70;99.90;;;;;;5051491;28;20451;-55
2021/01/05 06:49:28;;;;;;;25.70;11.13;;;0.70;99.90;;;;;;5051773;28;20462;-55
2021/01/05 06:51:55;;;;;;;21.87;10.60;;;0.90;99.90;;;;;;5051167;28;21046;-55
2021/01/05 06:54:23;;;;;;;24.77;11.60;;;0.80;99.90;;;;;;5051607;28;20451;-55
2021/01/05 06:56:51;;;;;;;22.73;10.40;;;0.80;99.90;;;;;;5051786;28;20459;-56
2021/01/05 06:59:19;;;;;;;24.10;10.07;;;0.60;99.90;;;;;;5051742;28;20457;-55
2021/01/05 07:01:52;;;;;;;28.50;11.97;;;0.60;99.90;;;;;;5051429;28;21057;-56
2021/01/05 07:04:19;;;;;;;29.47;11.43;;;0.50;99.90;;;;;;5051656;28;20450;-55
2021/01/05 07:06:46;;;;;;;28.87;12.20;;;0.30;99.90;;;;;;5051551;28;20826;-55
2021/01/05 07:09:13;;;;;;;26.00;11.70;;;0.30;99.90;;;;;;5043224;28;20808;-55
2021/01/05 07:11:40;;;;;;;24.57;10.70;;;0.50;99.90;;;;;;5051788;28;20451;-55
2021/01/05 07:14:07;;;;;;;22.83;11.20;;;0.50;99.90;;;;;;5051324;28;20454;-55
2021/01/05 07:16:34;;;;;;;24.30;10.20;;;0.50;99.90;;;;;;5051237;28;20483;-55
2021/01/05 07:19:00;;;;;;;27.00;11.20;;;0.40;99.90;;;;;;5051067;28;20529;-55
2021/01/05 07:21:27;;;;;;;22.13;10.00;;;0.40;99.90;;;;;;5051290;28;20800;-55
2021/01/05 07:23:53;;;;;;;20.93;9.77;;;0.50;99.90;;;;;;5050996;28;20983;-55
2021/01/05 07:26:19;;;;;;;24.67;11.27;;;0.50;99.90;;;;;;5051222;28;21069;-55
2021/01/05 07:28:47;;;;;;;23.03;9.47;;;0.60;99.90;;;;;;5050998;28;20504;-55
2021/01/05 07:31:14;;;;;;;23.23;10.57;;;0.70;99.90;;;;;;5050827;28;20820;-55
2021/01/05 07:33:40;;;;;;;24.13;10.50;;;0.80;99.90;;;;;;5057228;28;20453;-55
2021/01/05 07:36:09;;;;;;;30.23;10.90;;;0.80;99.90;;;;;;5055493;28;20471;-55
2021/01/05 07:38:37;;;;;;;27.87;11.73;;;0.90;99.90;;;;;;5056830;28;20458;-55
2021/01/05 07:41:04;;;;;;;25.87;10.47;;;0.70;99.90;;;;;;5050494;28;21018;-55
2021/01/05 07:43:30;;;;;;;22.57;11.10;;;0.70;99.90;;;;;;5050290;28;21001;-55
2021/01/05 07:45:57;;;;;;;27.93;11.37;;;0.70;99.90;;;;;;5050733;28;20528;-55
2021/01/05 07:48:24;;;;;;;26.43;10.90;;;0.80;99.90;;;;;;5050598;28;20448;-55
2021/01/05 07:50:50;;;;;;;21.00;10.17;;;0.80;99.90;;;;;;5050357;28;20888;-55
2021/01/05 07:53:17;;;;;;;26.50;11.23;;;0.80;99.90;;;;;;5050730;28;20451;-55
2021/01/05 07:55:43;;;;;;;32.83;11.60;;;0.90;99.90;;;;;;5050481;28;20482;-55
2021/01/05 07:58:10;;;;;;;29.13;11.80;;;1.00;99.90;;;;;;5050437;28;21155;-56
2021/01/05 08:00:36;;;;;;;26.63;12.00;;;0.90;99.90;;;;;;5050523;28;20454;-55
2021/01/05 08:03:04;;;;;;;24.10;10.97;;;1.00;99.90;;;;;;5049924;28;20503;-55
2021/01/05 08:05:30;;;;;;;24.40;10.70;;;1.00;99.90;;;;;;5049460;28;21058;-55
2021/01/05 08:07:58;;;;;;;24.70;10.17;;;0.90;99.90;;;;;;5049332;28;20957;-55
2021/01/05 08:10:28;;;;;;;28.73;11.50;;;0.80;99.90;;;;;;5049816;28;20532;-55
2021/01/05 08:12:54;;;;;;;28.00;10.33;;;0.70;99.90;;;;;;5049795;28;20443;-55
2021/01/05 08:15:23;;;;;;;26.80;11.40;;;0.70;99.90;;;;;;5049717;28;20487;-54
2021/01/05 08:17:50;;;;;;;27.77;10.67;;;0.80;99.90;;;;;;5049846;28;20639;-54
2021/01/05 08:20:19;;;;;;;24.20;9.93;;;0.90;99.90;;;;;;5047062;28;20975;-54
2021/01/05 08:22:46;;;;;;;30.00;11.77;;;0.80;99.90;;;;;;5050276;28;20482;-54
2021/01/05 08:25:14;;;;;;;28.00;11.10;;;0.80;99.90;;;;;;5049554;28;20482;-54
2021/01/05 08:27:47;;;;;;;24.37;11.00;;;0.60;99.90;;;;;;5049316;28;20981;-54
2021/01/05 08:30:16;;;;;;;32.70;12.43;;;0.40;99.90;;;;;;5047927;28;20875;-54
2021/01/05 08:32:43;;;;;;;34.23;13.07;;;0.40;99.90;;;;;;5041693;28;21016;-55
2021/01/05 08:35:11;;;;;;;28.20;11.17;;;0.40;99.90;;;;;;5049877;28;20470;-55
2021/01/05 08:37:38;;;;;;;26.90;10.83;;;0.40;99.90;;;;;;5050080;28;20450;-54
2021/01/05 08:40:08;;;;;;;28.10;11.47;;;0.30;99.90;;;;;;5049355;28;20862;-55
2021/01/05 08:42:34;;;;;;;30.50;13.47;;;0.50;99.90;;;;;;5049448;28;20477;-55
2021/01/05 08:45:01;;;;;;;27.90;11.33;;;0.60;99.90;;;;;;5048619;28;20470;-55
2021/01/05 08:47:28;;;;;;;26.73;11.10;;;0.50;99.90;;;;;;5049283;28;20455;-55
2021/01/05 08:49:54;;;;;;;26.80;11.33;;;0.30;99.90;;;;;;5049293;28;20458;-55
2021/01/05 08:52:21;;;;;;;32.90;11.50;;;0.50;99.90;;;;;;5048086;28;20457;-55
2021/01/05 08:54:48;;;;;;;27.93;10.87;;;0.60;99.90;;;;;;5048784;28;20544;-56
2021/01/05 08:57:15;;;;;;;25.53;11.03;;;0.50;99.90;;;;;;5049521;28;20549;-55
2021/01/05 08:59:46;;;;;;;27.53;11.40;;;0.50;99.90;;;;;;5048770;28;20450;-56
2021/01/05 09:02:12;;;;;;;26.03;11.10;;;0.40;99.90;;;;;;5048344;28;20478;-55
2021/01/05 09:04:39;;;;;;;23.90;11.17;;;0.70;99.90;;;;;;5048973;28;20479;-55
2021/01/05 09:07:06;;;;;;;28.63;11.80;;;0.80;99.90;;;;;;5043866;28;20553;-55
2021/01/05 09:09:33;;;;;;;27.80;11.03;;;0.90;99.90;;;;;;5048401;28;20455;-55
2021/01/05 09:12:00;;;;;;;29.30;11.90;;;0.80;99.90;;;;;;5048938;28;20462;-55
2021/01/05 09:14:27;;;;;;;25.20;11.60;;;0.90;99.90;;;;;;5048936;28;20865;-54
2021/01/05 09:16:57;;;;;;;28.27;12.00;;;0.80;99.90;;;;;;5052248;28;20450;-55
2021/01/05 09:19:24;;;;;;;29.73;10.83;;;0.70;99.90;;;;;;5052812;28;20455;-55
2021/01/05 09:21:51;;;;;;;26.17;10.47;;;0.70;99.90;;;;;;5052405;28;20452;-54
2021/01/05 09:24:18;;;;;;;23.97;10.57;;;0.90;99.90;;;;;;5046429;28;20490;-54
2021/01/05 09:26:44;;;;;;;31.80;13.00;;;0.80;99.90;;;;;;5053081;28;20461;-55
2021/01/05 09:29:13;;;;;;;25.17;11.57;;;0.90;99.90;;;;;;5045095;28;20461;-54
2021/01/05 09:31:42;;;;;;;29.07;11.67;;;0.90;99.90;;;;;;5053050;28;20454;-55
2021/01/05 09:34:10;;;;;;;29.53;11.87;;;0.90;99.90;;;;;;5052799;28;20447;-54
2021/01/05 09:36:37;;;;;;;26.57;10.57;;;1.00;99.90;;;;;;5053082;28;20467;-54
2021/01/05 09:39:06;;;;;;;23.00;10.67;;;1.10;99.90;;;;;;5048094;28;20460;-54
2021/01/05 09:41:36;;;;;;;29.50;11.87;;;1.10;99.90;;;;;;5052563;28;20450;-55
2021/01/05 09:44:03;;;;;;;27.60;11.57;;;1.20;99.90;;;;;;5051096;28;20482;-54
2021/01/05 09:46:30;;;;;;;24.50;11.00;;;1.00;99.90;;;;;;5053054;28;20859;-55
2021/01/05 09:48:57;;;;;;;26.07;12.30;;;1.10;99.90;;;;;;5049999;28;20451;-54
2021/01/05 09:51:25;;;;;;;24.50;11.40;;;1.10;99.90;;;;;;5052674;28;20448;-53
2021/01/05 09:53:52;;;;;;;28.47;11.07;;;1.40;99.90;;;;;;5044694;28;20949;-54
2021/01/05 09:56:19;;;;;;;26.20;10.87;;;1.20;99.90;;;;;;5044343;28;20482;-54
2021/01/05 09:58:46;;;;;;;27.60;11.60;;;1.20;99.90;;;;;;5051842;28;20459;-54
2021/01/05 10:01:13;;;;;;;31.10;11.80;;;1.10;99.90;;;;;;5051838;28;20462;-54
2021/01/05 10:03:43;;;;;;;29.83;11.77;;;1.20;99.90;;;;;;5052460;28;20486;-54
2021/01/05 10:06:11;;;;;;;29.90;11.67;;;1.40;99.90;;;;;;5051975;28;20996;-54
2021/01/05 10:08:38;;;;;;;30.17;11.87;;;1.40;99.90;;;;;;5052535;28;20455;-54
2021/01/05 10:11:05;;;;;;;27.27;12.30;;;1.50;99.90;;;;;;5052130;28;20444;-54
2021/01/05 10:13:32;;;;;;;26.87;11.40;;;1.40;99.90;;;;;;5052192;28;20452;-54
2021/01/05 10:15:58;;;;;;;27.47;11.30;;;1.30;99.90;;;;;;5051926;28;20479;-54
2021/01/05 10:18:25;;;;;;;28.80;12.50;;;1.60;99.90;;;;;;5051968;28;20448;-54
2021/01/05 10:20:53;;;;;;;24.23;11.90;;;1.50;99.90;;;;;;5051837;28;20447;-54
2021/01/05 10:23:19;;;;;;;30.97;12.30;;;1.60;99.90;;;;;;5052017;28;21073;-54
2021/01/05 10:25:47;;;;;;;31.07;13.03;;;1.60;99.90;;;;;;5052047;28;21027;-54
2021/01/05 10:28:14;;;;;;;31.43;12.87;;;1.60;99.90;;;;;;5050937;28;20458;-54
2021/01/05 10:30:40;;;;;;;34.43;12.77;;;1.30;99.90;;;;;;5051503;28;20459;-54
2021/01/05 10:33:07;;;;;;;36.83;13.00;;;1.30;99.90;;;;;;5051339;28;20455;-54
2021/01/05 10:35:34;;;;;;;31.30;12.80;;;1.50;99.90;;;;;;5043742;28;20909;-54
2021/01/05 10:38:01;;;;;;;32.40;14.20;;;1.60;99.90;;;;;;5054741;28;20577;-53
2021/01/05 10:40:28;;;;;;;32.10;12.23;;;1.70;99.90;;;;;;5051322;28;20463;-54
2021/01/05 10:42:55;;;;;;;34.50;12.30;;;1.70;99.90;;;;;;5051088;28;20517;-55
2021/01/05 10:45:25;;;;;;;32.83;12.70;;;1.70;99.90;;;;;;5051328;28;20558;-53
2021/01/05 10:47:52;;;;;;;28.50;11.90;;;1.70;99.90;;;;;;5051122;28;20466;-54
2021/01/05 10:50:22;;;;;;;25.97;11.23;;;1.80;99.90;;;;;;5051117;28;20887;-55
2021/01/05 10:52:50;;;;;;;33.13;12.50;;;1.90;99.90;;;;;;5051422;28;20456;-53
2021/01/05 10:55:18;;;;;;;33.13;12.47;;;2.10;99.90;;;;;;5051376;28;20993;-53
2021/01/05 10:57:45;;;;;;;31.37;12.57;;;2.20;99.90;;;;;;5051373;28;20444;-54
2021/01/05 11:00:15;;;;;;;31.20;12.17;;;2.30;99.90;;;;;;5051225;28;20462;-54
2021/01/05 11:02:42;;;;;;;31.63;12.00;;;2.20;99.90;;;;;;5051243;28;20577;-54
2021/01/05 11:05:13;;;;;;;33.90;12.20;;;2.00;99.90;;;;;;5051423;28;21017;-53
2021/01/05 11:07:39;;;;;;;31.00;12.60;;;1.90;99.90;;;;;;5050897;28;21163;-54
2021/01/05 11:10:07;;;;;;;37.40;13.10;;;2.00;99.90;;;;;;5051183;28;20872;-54
2021/01/05 11:12:34;;;;;;;30.50;12.33;;;2.10;99.90;;;;;;5050318;28;20827;-54
2021/01/05 11:15:01;;;;;;;36.37;13.60;;;2.10;99.90;;;;;;5050609;28;20471;-55
2021/01/05 11:17:29;;;;;;;29.47;11.70;;;2.00;99.90;;;;;;5099870;22;20504;-56
2021/01/05 11:19:55;;;;;;;37.67;14.30;;;2.10;99.90;;;;;;5073325;28;21006;-56
2021/01/05 11:22:23;;;;;;;33.37;13.20;;;2.20;99.90;;;;;;5071377;28;20475;-55
2021/01/05 11:24:49;;;;;;;32.00;12.97;;;2.30;99.90;;;;;;5072787;28;20453;-55
2021/01/05 11:27:17;;;;;;;30.00;11.93;;;2.20;99.90;;;;;;5081015;28;20497;-55
2021/01/05 11:29:46;;;;;;;31.47;12.70;;;2.00;99.90;;;;;;5070893;28;20458;-55
2021/01/05 11:32:14;;;;;;;31.80;12.60;;;2.00;99.90;;;;;;5090621;28;20438;-55
2021/01/05 11:34:42;;;;;;;34.00;13.53;;;2.10;99.90;;;;;;5074368;28;20447;-55
2021/01/05 11:37:11;;;;;;;31.53;12.83;;;2.30;99.90;;;;;;5080079;28;20466;-55
2021/01/05 11:39:39;;;;;;;30.50;12.37;;;2.30;99.90;;;;;;5069863;28;20972;-56
2021/01/05 11:42:06;;;;;;;30.23;12.93;;;2.40;99.90;;;;;;5074322;28;20513;-56
2021/01/05 11:44:33;;;;;;;35.57;13.00;;;2.40;99.90;;;;;;5085321;28;20445;-55
2021/01/05 11:47:00;;;;;;;30.10;12.10;;;2.00;99.90;;;;;;5090045;28;20513;-55
2021/01/05 11:49:27;;;;;;;28.83;11.90;;;2.10;99.90;;;;;;5083764;28;20447;-56
2021/01/05 11:51:56;;;;;;;28.40;13.07;;;2.30;99.90;;;;;;5078062;28;20460;-55
2021/01/05 11:54:24;;;;;;;30.87;13.17;;;2.20;99.90;;;;;;5070432;28;20669;-55
2021/01/05 11:56:55;;;;;;;34.83;13.60;;;2.10;99.90;;;;;;5070857;28;20467;-55
2021/01/05 11:59:22;;;;;;;32.57;13.40;;;1.80;99.90;;;;;;5082241;28;20454;-55
2021/01/05 12:01:48;;;;;;;34.00;13.90;;;1.80;99.90;;;;;;5075594;28;20956;-55
2021/01/05 12:04:16;;;;;;;31.60;12.80;;;2.00;99.90;;;;;;5079980;28;20478;-55
2021/01/05 12:06:47;;;;;;;31.57;12.77;;;2.20;99.90;;;;;;5081419;28;20527;-55
2021/01/05 12:09:14;;;;;;;33.57;14.57;;;2.00;99.90;;;;;;5077969;28;20453;-55
2021/01/05 12:11:40;;;;;;;31.67;12.10;;;1.90;99.90;;;;;;5085358;28;20450;-55
2021/01/05 12:14:07;;;;;;;28.43;12.07;;;1.90;99.90;;;;;;5086300;28;20469;-55
2021/01/05 12:16:36;;;;;;;35.00;12.93;;;1.60;99.90;;;;;;5089172;28;20478;-55
2021/01/05 12:19:04;;;;;;;29.70;12.00;;;1.60;99.90;;;;;;5073715;28;20454;-55
2021/01/05 12:21:34;;;;;;;29.93;12.87;;;1.60;99.90;;;;;;5080106;28;20451;-55
2021/01/05 12:24:04;;;;;;;32.37;12.70;;;1.70;99.90;;;;;;5073768;28;20481;-55
2021/01/05 12:26:32;;;;;;;33.87;12.73;;;1.50;99.90;;;;;;5072014;28;20469;-55
2021/01/05 12:29:03;;;;;;;27.57;11.90;;;1.70;99.90;;;;;;5089763;28;20450;-54
2021/01/05 12:31:31;;;;;;;34.07;13.40;;;1.80;99.90;;;;;;5087509;28;20985;-55
2021/01/05 12:33:57;;;;;;;31.63;12.67;;;1.80;99.90;;;;;;5073852;28;20452;-55
2021/01/05 12:36:27;;;;;;;32.73;13.20;;;1.90;99.90;;;;;;5089732;28;21048;-54
2021/01/05 12:38:55;;;;;;;31.27;12.40;;;1.80;99.90;;;;;;5089821;28;20956;-58
2021/01/05 12:41:21;;;;;;;34.03;12.30;;;1.80;99.90;;;;;;5084341;28;20454;-55
2021/01/05 12:43:48;;;;;;;29.27;11.80;;;1.80;99.90;;;;;;5069738;28;20841;-55
2021/01/05 12:46:23;;;;;;;29.53;11.43;;;1.70;99.90;;;;;;5069459;28;20470;-55
2021/01/05 12:48:49;;;;;;;26.97;11.93;;;1.60;99.90;;;;;;5069782;28;20459;-55
2021/01/05 12:51:16;;;;;;;26.47;11.67;;;1.60;99.90;;;;;;5072634;28;20458;-55
2021/01/05 12:53:42;;;;;;;33.27;14.63;;;1.70;99.90;;;;;;5074186;28;20507;-55
2021/01/05 12:56:09;;;;;;;34.40;15.70;;;1.80;99.90;;;;;;5084288;28;20473;-55
2021/01/05 12:58:36;;;;;;;37.83;13.17;;;2.00;99.90;;;;;;5074630;28;20451;-55
2021/01/05 13:01:03;;;;;;;30.80;12.23;;;1.90;99.90;;;;;;5073711;28;20450;-55
2021/01/05 13:03:29;;;;;;;27.80;11.30;;;1.80;99.90;;;;;;5074239;28;20485;-54
2021/01/05 13:05:56;;;;;;;29.47;11.20;;;1.60;99.90;;;;;;5073635;28;20502;-55
2021/01/05 13:08:22;;;;;;;32.13;12.60;;;1.50;99.90;;;;;;5073825;28;20467;-54